Time;durP1;ratioP1;P1;durP2;ratioP2;P2;SDS_P1;SDS_P2;PMS_P1;PMS_P2;Temp;Humidity;BMP_temperature;BMP_pressure;BME280_temperature;BME280_humidity;BME280_pressure;Samples;Min_cycle;Max_cycle;Signal;HPM_P1;HPM_P2
2022/06/23 00:00:33;;;;;;;;;;;26.20;70.80;;;;;;5153448;27;19942;-68
2022/06/23 00:03:00;;;;;;;;;;;26.10;70.50;;;;;;5155048;27;19906;-68
2022/06/23 00:05:27;;;;;;;;;;;26.10;70.80;;;;;;5154465;27;19922;-68
2022/06/23 00:07:56;;;;;;;;;;;26.00;72.10;;;;;;5155062;27;19903;-68
2022/06/23 00:10:24;;;;;;;;;;;26.00;72.00;;;;;;5154858;27;19903;-71
2022/06/23 00:12:50;;;;;;;;;;;25.90;72.40;;;;;;5154725;27;19903;-68
2022/06/23 00:15:19;;;;;;;;;;;26.00;72.60;;;;;;5154150;27;19910;-67
2022/06/23 00:17:48;;;;;;;;;;;26.00;72.70;;;;;;5154712;27;19926;-70
2022/06/23 00:20:19;;;;;;;;;;;26.00;73.00;;;;;;5154196;27;19903;-67
2022/06/23 00:22:50;;;;;;;;;;;25.90;73.50;;;;;;5154195;27;19946;-68
2022/06/23 00:25:40;;;;;;;;;;;25.90;73.60;;;;;;5154031;27;19907;-68
2022/06/23 00:28:06;;;;;;;;;;;25.90;73.70;;;;;;5154397;27;19922;-68
2022/06/23 00:30:39;;;;;;;;;;;25.90;73.70;;;;;;5154126;27;19914;-68
2022/06/23 00:33:16;;;;;;;;;;;25.90;74.00;;;;;;5152669;27;20350;-68
2022/06/23 00:35:42;;;;;;;;;;;25.80;73.90;;;;;;5154488;27;19950;-68
2022/06/23 00:38:34;;;;;;;;;;;25.90;73.70;;;;;;5154239;27;19907;-67
2022/06/23 00:41:00;;;;;;;;;;;25.90;73.60;;;;;;5149868;27;19914;-67
2022/06/23 00:43:27;;;;;;;;;;;25.90;74.10;;;;;;5153888;27;20363;-68
2022/06/23 00:45:53;;;;;;;;;;;25.90;74.20;;;;;;5154164;27;19907;-67
2022/06/23 00:48:34;;;;;;;;;;;26.00;73.80;;;;;;5153806;27;20365;-67
2022/06/23 00:51:15;;;;;;;;;;;26.00;73.70;;;;;;5154149;27;20009;-68
2022/06/23 00:53:43;;;;;;;;;;;25.90;73.70;;;;;;5153972;27;19903;-67
2022/06/23 00:56:18;;;;;;;;;;;25.90;74.00;;;;;;5152824;27;19914;-67
2022/06/23 00:58:56;;;;;;;;;;;25.90;73.90;;;;;;5152285;27;19999;-68
2022/06/23 01:01:41;;;;;;;;;;;25.90;74.00;;;;;;5153780;27;19903;-68
2022/06/23 01:04:27;;;;;;;;;;;25.90;74.10;;;;;;5154145;27;20232;-68
2022/06/23 01:07:07;;;;;;;;;;;25.90;74.00;;;;;;5153544;27;19914;-68
2022/06/23 01:09:48;;;;;;;;;;;25.90;73.90;;;;;;5154054;27;19903;-68
2022/06/23 01:12:33;;;;;;;;;;;25.90;74.00;;;;;;5153624;27;20274;-68
2022/06/23 01:15:05;;;;;;;;;;;25.90;73.70;;;;;;5154236;27;19907;-68
2022/06/23 01:17:41;;;;;;;;;;;25.90;73.70;;;;;;5153797;27;20006;-68
2022/06/23 01:20:26;;;;;;;;;;;25.90;73.90;;;;;;5153692;27;19903;-68
2022/06/23 01:22:56;;;;;;;;;;;25.90;73.70;;;;;;5153418;27;19953;-68
2022/06/23 01:25:30;;;;;;;;;;;25.90;73.80;;;;;;5153407;27;19907;-68
2022/06/23 01:27:59;;;;;;;;;;;25.90;73.90;;;;;;5153359;27;20274;-68
2022/06/23 01:30:27;;;;;;;;;;;25.90;73.90;;;;;;5153734;27;19934;-69
2022/06/23 01:32:56;;;;;;;;;;;26.00;73.80;;;;;;5153334;27;20283;-68
2022/06/23 01:35:27;;;;;;;;;;;26.10;73.60;;;;;;5153674;27;19903;-69
2022/06/23 01:37:56;;;;;;;;;;;26.10;73.80;;;;;;5153293;27;19906;-69
2022/06/23 01:40:41;;;;;;;;;;;25.90;74.00;;;;;;5153629;27;19903;-68
2022/06/23 01:43:13;;;;;;;;;;;25.90;74.00;;;;;;5153438;27;19903;-68
2022/06/23 01:45:43;;;;;;;;;;;26.00;73.50;;;;;;5153022;27;20013;-68
2022/06/23 01:48:53;;;;;;;;;;;26.00;73.40;;;;;;5153296;27;19907;-68
2022/06/23 01:51:28;;;;;;;;;;;25.90;73.40;;;;;;5069580;28;19919;-68
2022/06/23 01:54:05;;;;;;;;;;;25.90;73.70;;;;;;5069353;28;19905;-68
2022/06/23 01:56:34;;;;;;;;;;;25.90;73.70;;;;;;5069445;28;20005;-68
2022/06/23 01:59:26;;;;;;;;;;;25.90;73.80;;;;;;5068961;28;19998;-68
2022/06/23 02:02:15;;;;;;;;;;;25.90;73.70;;;;;;5065850;28;19954;-68
2022/06/23 02:04:47;;;;;;;;;;;25.90;73.70;;;;;;5069132;28;19920;-68
2022/06/23 02:07:39;;;;;;;;;;;25.90;73.90;;;;;;5069768;28;19954;-68
2022/06/23 02:10:04;;;;;;;;;;;25.90;73.90;;;;;;5069914;28;20373;-68
2022/06/23 02:12:35;;;;;;;;;;;25.90;74.10;;;;;;5072583;28;19924;-68
2022/06/23 02:15:12;;;;;;;;;;;25.90;75.20;;;;;;5072874;28;20031;-68
2022/06/23 02:17:45;;;;;;;;;;;25.90;75.60;;;;;;5072545;28;19904;-68
2022/06/23 02:20:29;;;;;;;;;;;26.00;75.90;;;;;;5072560;28;19904;-68
2022/06/23 02:23:07;;;;;;;;;;;26.00;75.90;;;;;;5072530;28;19978;-69
2022/06/23 02:25:35;;;;;;;;;;;26.00;75.80;;;;;;5072768;28;19908;-69
2022/06/23 02:28:16;;;;;;;;;;;26.00;76.10;;;;;;5121357;27;19903;-69
2022/06/23 02:30:47;;;;;;;;;;;26.00;76.10;;;;;;5156885;27;19961;-69
2022/06/23 02:33:13;;;;;;;;;;;26.00;76.00;;;;;;5156728;27;20002;-68
2022/06/23 02:35:45;;;;;;;;;;;26.00;76.00;;;;;;5156839;27;19938;-68
2022/06/23 02:38:17;;;;;;;;;;;26.00;75.80;;;;;;5156425;27;20363;-68
2022/06/23 02:40:45;;;;;;;;;;;26.00;75.40;;;;;;5156626;27;19921;-68
2022/06/23 02:43:32;;;;;;;;;;;26.00;75.40;;;;;;5156583;27;20189;-68
2022/06/23 02:45:57;;;;;;;;;;;25.80;76.10;;;;;;5155979;27;19917;-68
2022/06/23 02:48:32;;;;;;;;;;;25.80;75.80;;;;;;5156513;27;19982;-69
2022/06/23 02:51:21;;;;;;;;;;;25.80;75.80;;;;;;5156208;27;19943;-68
2022/06/23 02:53:50;;;;;;;;;;;25.80;75.80;;;;;;5157060;27;19925;-68
2022/06/23 02:56:34;;;;;;;;;;;25.80;75.90;;;;;;5156782;27;20341;-68
2022/06/23 02:59:06;;;;;;;;;;;25.70;75.90;;;;;;5155028;27;19907;-68
2022/06/23 03:01:36;;;;;;;;;;;25.70;76.00;;;;;;5155513;27;19903;-68
2022/06/23 03:04:05;;;;;;;;;;;25.70;75.80;;;;;;5157169;27;19903;-68
2022/06/23 03:06:44;;;;;;;;;;;25.60;75.80;;;;;;5155965;27;20017;-68
2022/06/23 03:09:13;;;;;;;;;;;25.60;75.60;;;;;;5155993;27;19903;-68
2022/06/23 03:11:52;;;;;;;;;;;25.60;75.70;;;;;;5156205;27;20018;-68
2022/06/23 03:14:27;;;;;;;;;;;25.60;75.50;;;;;;5155953;27;19945;-68
2022/06/23 03:16:56;;;;;;;;;;;25.60;75.60;;;;;;5154466;27;20400;-68
2022/06/23 03:19:27;;;;;;;;;;;25.60;75.50;;;;;;5155431;27;19910;-68
2022/06/23 03:22:01;;;;;;;;;;;25.60;75.20;;;;;;5156200;27;19962;-68
2022/06/23 03:24:30;;;;;;;;;;;25.60;75.70;;;;;;5156023;27;19903;-68
2022/06/23 03:27:00;;;;;;;;;;;25.50;75.60;;;;;;5156255;27;19999;-68
2022/06/23 03:29:46;;;;;;;;;;;25.50;75.10;;;;;;5156339;27;20362;-68
2022/06/23 03:32:34;;;;;;;;;;;25.50;74.50;;;;;;5141443;27;19903;-68
2022/06/23 03:35:03;;;;;;;;;;;25.50;74.30;;;;;;5156272;27;19907;-68
2022/06/23 03:37:47;;;;;;;;;;;25.50;74.30;;;;;;5156068;27;19911;-68
2022/06/23 03:43:06;;;;;;;;;;;25.40;73.80;;;;;;5155890;27;19978;-68
2022/06/23 03:45:35;;;;;;;;;;;25.50;72.90;;;;;;5155981;27;19975;-68
2022/06/23 03:48:27;;;;;;;;;;;25.50;72.20;;;;;;5155994;27;19907;-68
2022/06/23 03:50:57;;;;;;;;;;;25.50;72.50;;;;;;5151974;27;20006;-68
2022/06/23 03:53:23;;;;;;;;;;;25.50;72.40;;;;;;5155809;27;19903;-68
2022/06/23 03:55:51;;;;;;;;;;;25.60;72.60;;;;;;5155613;27;19907;-68
2022/06/23 03:58:20;;;;;;;;;;;25.60;72.60;;;;;;5155587;27;19903;-68
2022/06/23 04:01:01;;;;;;;;;;;25.60;72.60;;;;;;5155960;27;19921;-68
2022/06/23 04:03:47;;;;;;;;;;;25.60;72.80;;;;;;5155549;27;20276;-69
2022/06/23 04:06:15;;;;;;;;;;;25.60;72.90;;;;;;5155704;27;19970;-68
2022/06/23 04:08:44;;;;;;;;;;;25.70;73.00;;;;;;5155268;27;20045;-68
2022/06/23 04:13:59;;;;;;;;;;;25.80;72.80;;;;;;5155810;27;19926;-68
2022/06/23 04:16:25;;;;;;;;;;;25.80;72.90;;;;;;5155106;27;20005;-68
2022/06/23 04:18:52;;;;;;;;;;;25.90;73.00;;;;;;5155623;27;19946;-67
2022/06/23 04:21:27;;;;;;;;;;;26.00;72.80;;;;;;5155470;27;19910;-68
2022/06/23 04:23:54;;;;;;;;;;;26.10;73.10;;;;;;5154710;27;19903;-68
2022/06/23 04:26:20;;;;;;;;;;;26.10;73.20;;;;;;5155352;27;19930;-68
2022/06/23 04:28:48;;;;;;;;;;;26.20;73.40;;;;;;5155309;27;19903;-68
2022/06/23 04:31:25;;;;;;;;;;;26.30;73.40;;;;;;5155773;27;19903;-68
2022/06/23 04:33:52;;;;;;;;;;;26.30;73.50;;;;;;5155405;27;19990;-68
2022/06/23 04:36:24;;;;;;;;;;;26.40;73.20;;;;;;5155526;27;19910;-67
2022/06/23 04:38:58;;;;;;;;;;;26.40;73.40;;;;;;5155268;27;19914;-67
2022/06/23 04:41:24;;;;;;;;;;;26.60;72.80;;;;;;5156014;27;19903;-67
2022/06/23 04:43:55;;;;;;;;;;;26.70;72.30;;;;;;5155426;27;19914;-69
2022/06/23 04:46:30;;;;;;;;;;;26.80;71.90;;;;;;5155230;27;19917;-67
2022/06/23 04:49:01;;;;;;;;;;;26.70;71.00;;;;;;5155175;27;20003;-68
2022/06/23 04:51:32;;;;;;;;;;;26.80;71.20;;;;;;5155601;27;19903;-67
2022/06/23 04:54:10;;;;;;;;;;;26.90;71.00;;;;;;5153703;27;19910;-67
2022/06/23 04:56:42;;;;;;;;;;;27.10;70.60;;;;;;5155350;27;19903;-67
2022/06/23 04:59:17;;;;;;;;;;;27.30;70.60;;;;;;5154964;27;19903;-67
2022/06/23 05:01:45;;;;;;;;;;;27.50;70.10;;;;;;5155094;27;19940;-67
2022/06/23 05:04:16;;;;;;;;;;;27.90;69.30;;;;;;5154943;27;19914;-67
2022/06/23 05:06:43;;;;;;;;;;;28.50;68.40;;;;;;5154776;27;19969;-67
2022/06/23 05:09:30;;;;;;;;;;;29.00;67.10;;;;;;5154597;27;19942;-68
2022/06/23 05:11:58;;;;;;;;;;;29.50;66.40;;;;;;5155149;27;19903;-68
2022/06/23 05:14:42;;;;;;;;;;;30.20;65.00;;;;;;5154650;27;19903;-68
2022/06/23 05:17:18;;;;;;;;;;;30.60;63.60;;;;;;5154881;27;19903;-68
2022/06/23 05:19:45;;;;;;;;;;;31.00;63.00;;;;;;5154605;27;19964;-67
2022/06/23 05:22:16;;;;;;;;;;;31.40;62.50;;;;;;5153214;27;19910;-68
2022/06/23 05:24:43;;;;;;;;;;;32.10;61.20;;;;;;5155368;27;19983;-68
2022/06/23 05:27:16;;;;;;;;;;;32.20;60.20;;;;;;5154474;27;19911;-68
2022/06/23 05:29:52;;;;;;;;;;;32.50;59.90;;;;;;5154985;27;20347;-68
2022/06/23 05:32:27;;;;;;;;;;;32.80;59.40;;;;;;5154817;27;19910;-68
2022/06/23 05:35:12;;;;;;;;;;;33.40;58.20;;;;;;5154331;27;19903;-68
2022/06/23 05:37:45;;;;;;;;;;;34.40;57.40;;;;;;5154616;27;20391;-69
2022/06/23 05:40:23;;;;;;;;;;;35.50;54.80;;;;;;5154549;27;19934;-69
2022/06/23 05:42:50;;;;;;;;;;;36.20;52.90;;;;;;5156925;27;20331;-69
2022/06/23 05:45:19;;;;;;;;;;;37.20;51.90;;;;;;5158428;27;19938;-69
2022/06/23 05:47:45;;;;;;;;;;;37.50;50.70;;;;;;5158287;27;19903;-68
2022/06/23 05:50:14;;;;;;;;;;;37.50;50.90;;;;;;5158078;27;19903;-68
2022/06/23 05:52:44;;;;;;;;;;;38.20;50.20;;;;;;5157940;27;19907;-69
2022/06/23 05:55:15;;;;;;;;;;;38.20;49.30;;;;;;5158016;27;20013;-69
2022/06/23 05:57:51;;;;;;;;;;;38.60;48.80;;;;;;5158387;27;19903;-70
2022/06/23 06:00:19;;;;;;;;;;;38.90;48.90;;;;;;5157886;27;19982;-69
2022/06/23 06:02:55;;;;;;;;;;;39.60;48.20;;;;;;5157710;27;19903;-69
2022/06/23 06:05:34;;;;;;;;;;;39.20;47.00;;;;;;5158050;27;19915;-69
2022/06/23 06:08:03;;;;;;;;;;;39.90;46.90;;;;;;5158157;27;19907;-69
2022/06/23 06:10:30;;;;;;;;;;;40.40;45.80;;;;;;5156768;27;19960;-69
2022/06/23 06:12:57;;;;;;;;;;;41.00;45.30;;;;;;5158632;27;19913;-69
2022/06/23 06:15:31;;;;;;;;;;;42.20;44.10;;;;;;5158148;27;19998;-69
2022/06/23 06:18:05;;;;;;;;;;;42.90;42.70;;;;;;5158426;27;20270;-68
2022/06/23 06:20:31;;;;;;;;;;;43.60;41.60;;;;;;5158891;27;19903;-68
2022/06/23 06:23:13;;;;;;;;;;;43.70;41.00;;;;;;5158485;27;19903;-69
2022/06/23 06:25:40;;;;;;;;;;;43.50;40.00;;;;;;5158293;27;19911;-69
2022/06/23 06:28:16;;;;;;;;;;;44.00;39.40;;;;;;5158373;27;19910;-69
2022/06/23 06:31:05;;;;;;;;;;;44.50;38.30;;;;;;5158265;27;20028;-69
2022/06/23 06:34:00;;;;;;;;;;;45.00;37.80;;;;;;5158065;27;19910;-69
2022/06/23 06:36:28;;;;;;;;;;;45.40;36.20;;;;;;5140168;27;19903;-69
2022/06/23 06:38:56;;;;;;;;;;;45.50;35.60;;;;;;5157894;27;19903;-69
2022/06/23 06:41:22;;;;;;;;;;;46.30;35.20;;;;;;5158332;27;20334;-69
2022/06/23 06:43:48;;;;;;;;;;;46.50;34.80;;;;;;5158063;27;19905;-69
2022/06/23 06:46:14;;;;;;;;;;;46.50;36.10;;;;;;5157616;27;20267;-69
2022/06/23 06:48:43;;;;;;;;;;;46.80;36.70;;;;;;5157620;27;20013;-69
2022/06/23 06:51:23;;;;;;;;;;;47.20;35.50;;;;;;5157663;27;20361;-69
2022/06/23 06:53:52;;;;;;;;;;;47.40;35.10;;;;;;5156552;27;19903;-69
2022/06/23 06:56:20;;;;;;;;;;;47.50;35.70;;;;;;5157649;27;20006;-69
2022/06/23 06:58:59;;;;;;;;;;;47.70;35.50;;;;;;5158192;27;19903;-69
2022/06/23 07:01:26;;;;;;;;;;;47.90;34.70;;;;;;5157833;27;19909;-69
2022/06/23 07:03:53;;;;;;;;;;;48.20;34.90;;;;;;5157431;27;19997;-69
2022/06/23 07:06:27;;;;;;;;;;;47.70;34.80;;;;;;5157119;27;20367;-69
2022/06/23 07:09:06;;;;;;;;;;;48.10;35.70;;;;;;5157518;27;19903;-68
2022/06/23 07:11:38;;;;;;;;;;;48.50;34.40;;;;;;5157515;27;19909;-68
2022/06/23 07:14:04;;;;;;;;;;;47.70;36.40;;;;;;5157793;27;19914;-68
2022/06/23 07:16:36;;;;;;;;;;;47.50;35.80;;;;;;5157153;27;19914;-69
2022/06/23 07:19:10;;;;;;;;;;;46.50;37.20;;;;;;5157766;27;19903;-68
2022/06/23 07:21:38;;;;;;;;;;;45.90;37.80;;;;;;5157186;27;19910;-68
2022/06/23 07:24:23;;;;;;;;;;;45.30;39.20;;;;;;5157103;27;19924;-68
2022/06/23 07:27:01;;;;;;;;;;;44.40;39.60;;;;;;5156928;27;19942;-68
2022/06/23 07:29:50;;;;;;;;;;;43.20;40.40;;;;;;5157102;27;19910;-68
2022/06/23 07:32:20;;;;;;;;;;;42.60;41.50;;;;;;5157206;27;20359;-68
2022/06/23 07:34:48;;;;;;;;;;;41.60;42.20;;;;;;5157202;27;20270;-68
2022/06/23 07:37:18;;;;;;;;;;;41.10;42.80;;;;;;5156763;27;19910;-68
2022/06/23 07:39:44;;;;;;;;;;;41.00;43.70;;;;;;5157088;27;19903;-68
2022/06/23 07:42:10;;;;;;;;;;;40.30;45.40;;;;;;5157286;27;19929;-68
2022/06/23 07:44:39;;;;;;;;;;;40.20;46.60;;;;;;5156813;27;20343;-68
2022/06/23 07:47:05;;;;;;;;;;;40.00;47.00;;;;;;5156775;27;19911;-67
2022/06/23 07:49:32;;;;;;;;;;;39.60;46.70;;;;;;5155786;27;20014;-67
2022/06/23 07:51:58;;;;;;;;;;;39.20;47.00;;;;;;5155575;27;19910;-67
2022/06/23 07:54:24;;;;;;;;;;;39.00;47.00;;;;;;5155404;27;19903;-68
2022/06/23 07:56:51;;;;;;;;;;;38.60;47.30;;;;;;5155365;27;19914;-67
2022/06/23 07:59:18;;;;;;;;;;;38.40;47.80;;;;;;5155191;27;20006;-69
2022/06/23 08:01:56;;;;;;;;;;;38.40;47.90;;;;;;5155676;27;19914;-67
2022/06/23 08:04:29;;;;;;;;;;;38.60;47.80;;;;;;5155237;27;19910;-67
2022/06/23 08:07:01;;;;;;;;;;;38.70;47.50;;;;;;5155387;27;19922;-68
2022/06/23 08:09:29;;;;;;;;;;;38.30;47.60;;;;;;5154887;27;20335;-68
2022/06/23 08:14:43;;;;;;;;;;;38.50;48.20;;;;;;5155701;27;19945;-69
2022/06/23 08:17:12;;;;;;;;;;;38.40;47.60;;;;;;5155977;27;19903;-69
2022/06/23 08:19:50;;;;;;;;;;;38.40;47.20;;;;;;5156826;27;19903;-67
2022/06/23 08:22:20;;;;;;;;;;;38.60;47.20;;;;;;5156087;27;20017;-67
2022/06/23 08:24:48;;;;;;;;;;;38.60;47.30;;;;;;5154533;27;19910;-68
2022/06/23 08:27:19;;;;;;;;;;;38.50;47.00;;;;;;5155492;27;19934;-68
2022/06/23 08:29:47;;;;;;;;;;;38.60;47.30;;;;;;5155569;27;20331;-68
2022/06/23 08:32:14;;;;;;;;;;;38.20;47.30;;;;;;5155900;27;19925;-68
2022/06/23 08:34:43;;;;;;;;;;;38.20;47.60;;;;;;5155405;27;19982;-68
2022/06/23 08:37:15;;;;;;;;;;;38.20;47.70;;;;;;5155883;27;20101;-68
2022/06/23 08:39:50;;;;;;;;;;;38.20;47.70;;;;;;5155498;27;19903;-68
2022/06/23 08:42:21;;;;;;;;;;;38.10;48.00;;;;;;5155342;27;19982;-68
2022/06/23 08:45:01;;;;;;;;;;;38.00;48.30;;;;;;5155290;27;19910;-68
2022/06/23 08:47:45;;;;;;;;;;;38.10;48.50;;;;;;5155772;27;19918;-68
2022/06/23 08:50:14;;;;;;;;;;;37.90;48.30;;;;;;5154937;27;19994;-68
2022/06/23 08:52:58;;;;;;;;;;;38.20;48.40;;;;;;5155031;27;19961;-68
2022/06/23 08:55:29;;;;;;;;;;;38.50;47.80;;;;;;5155335;27;19998;-69
2022/06/23 08:57:59;;;;;;;;;;;38.70;48.00;;;;;;5154931;27;19902;-68
2022/06/23 09:00:48;;;;;;;;;;;38.80;48.30;;;;;;5154815;27;20002;-69
2022/06/23 09:03:14;;;;;;;;;;;38.50;48.70;;;;;;5143748;27;19957;-69
2022/06/23 09:06:02;;;;;;;;;;;38.50;48.90;;;;;;5154888;27;19915;-69
2022/06/23 09:08:40;;;;;;;;;;;38.40;49.20;;;;;;5155120;27;20331;-68
2022/06/23 09:11:06;;;;;;;;;;;37.80;50.80;;;;;;5155251;27;20267;-68
2022/06/23 09:13:50;;;;;;;;;;;37.70;52.90;;;;;;5154874;27;19903;-68
2022/06/23 09:16:28;;;;;;;;;;;37.30;53.30;;;;;;5154279;27;19907;-68
2022/06/23 09:19:05;;;;;;;;;;;37.40;53.60;;;;;;5154860;27;19903;-68
2022/06/23 09:21:39;;;;;;;;;;;37.50;52.40;;;;;;5155114;27;20038;-68
2022/06/23 09:24:17;;;;;;;;;;;37.60;51.70;;;;;;5155076;27;19903;-67
2022/06/23 09:26:54;;;;;;;;;;;37.70;50.20;;;;;;5153058;27;20270;-67
2022/06/23 09:29:39;;;;;;;;;;;37.60;49.40;;;;;;5154883;27;19942;-69
2022/06/23 09:32:14;;;;;;;;;;;37.40;50.70;;;;;;5154686;27;19910;-68
2022/06/23 09:34:56;;;;;;;;;;;37.10;53.40;;;;;;5154894;27;19907;-68
2022/06/23 09:37:54;;;;;;;;;;;37.20;54.90;;;;;;5154974;27;20017;-69
2022/06/23 09:40:40;;;;;;;;;;;37.40;54.80;;;;;;5070679;28;19904;-70
2022/06/23 09:43:20;;;;;;;;;;;37.30;55.60;;;;;;5070977;28;19911;-69
2022/06/23 09:45:59;;;;;;;;;;;37.10;56.50;;;;;;5070609;28;20454;-69
2022/06/23 09:48:30;;;;;;;;;;;36.70;55.80;;;;;;5071192;28;20057;-70
2022/06/23 09:50:58;;;;;;;;;;;36.50;57.10;;;;;;5070467;28;19915;-69
2022/06/23 09:53:37;;;;;;;;;;;36.50;57.00;;;;;;5070301;28;20118;-69
2022/06/23 09:56:05;;;;;;;;;;;36.50;58.00;;;;;;5070188;28;19904;-69
2022/06/23 09:58:49;;;;;;;;;;;36.60;57.70;;;;;;5070078;28;19927;-69
2022/06/23 10:01:23;;;;;;;;;;;36.60;58.30;;;;;;5070279;28;19911;-69
2022/06/23 10:03:57;;;;;;;;;;;36.40;59.90;;;;;;5071160;28;19904;-68
2022/06/23 10:06:34;;;;;;;;;;;35.90;60.70;;;;;;5070033;28;20344;-69
2022/06/23 10:09:10;;;;;;;;;;;35.80;62.10;;;;;;5070716;28;19908;-68
2022/06/23 10:11:46;;;;;;;;;;;35.70;62.70;;;;;;5070158;28;19980;-68
2022/06/23 10:14:11;;;;;;;;;;;35.60;62.80;;;;;;5070355;28;19905;-68
2022/06/23 10:16:47;;;;;;;;;;;35.70;63.00;;;;;;5136966;27;19910;-68
2022/06/23 10:19:21;;;;;;;;;;;35.10;65.20;;;;;;5154005;27;19955;-68
2022/06/23 10:22:05;;;;;;;;;;;34.60;66.30;;;;;;5153770;27;19903;-70
2022/06/23 10:24:57;;;;;;;;;;;34.40;67.30;;;;;;5154379;27;19903;-68
2022/06/23 10:27:32;;;;;;;;;;;34.30;67.40;;;;;;5154216;27;19986;-68
2022/06/23 10:30:16;;;;;;;;;;;34.60;66.20;;;;;;5157599;27;19903;-69
2022/06/23 10:32:48;;;;;;;;;;;34.70;66.40;;;;;;5158250;27;20001;-69
2022/06/23 10:35:34;;;;;;;;;;;34.40;67.00;;;;;;5157672;27;19903;-68
2022/06/23 10:38:18;;;;;;;;;;;34.20;67.40;;;;;;5142776;27;19907;-69
2022/06/23 10:41:03;;;;;;;;;;;34.10;67.90;;;;;;5157543;27;19903;-68
2022/06/23 10:43:49;;;;;;;;;;;34.20;67.50;;;;;;5157601;27;19910;-68
2022/06/23 10:46:23;;;;;;;;;;;33.60;68.20;;;;;;5157346;27;19919;-68
2022/06/23 10:48:53;;;;;;;;;;;33.80;68.00;;;;;;5157947;27;19903;-69
2022/06/23 10:51:37;;;;;;;;;;;34.00;67.20;;;;;;5157262;27;19903;-68
2022/06/23 10:54:16;;;;;;;;;;;34.30;66.90;;;;;;5156877;27;20400;-68
2022/06/23 10:57:01;;;;;;;;;;;34.10;68.00;;;;;;5157452;27;19925;-68
2022/06/23 10:59:46;;;;;;;;;;;34.20;68.50;;;;;;5156873;27;19903;-69
2022/06/23 11:02:20;;;;;;;;;;;33.90;69.80;;;;;;5157165;27;19913;-68
2022/06/23 11:05:07;;;;;;;;;;;33.90;70.20;;;;;;5156718;27;20439;-68
2022/06/23 11:07:57;;;;;;;;;;;33.90;70.90;;;;;;5156982;27;20036;-68
2022/06/23 11:10:38;;;;;;;;;;;33.80;72.30;;;;;;5156404;27;19907;-68
2022/06/23 11:13:12;;;;;;;;;;;33.40;73.70;;;;;;5156531;27;19915;-69
2022/06/23 11:15:49;;;;;;;;;;;33.20;74.00;;;;;;5156984;27;19910;-68
2022/06/23 11:18:15;;;;;;;;;;;33.10;74.50;;;;;;5156867;27;20369;-68
2022/06/23 11:20:59;;;;;;;;;;;33.30;73.90;;;;;;5157010;27;19907;-68
2022/06/23 11:23:40;;;;;;;;;;;33.60;74.00;;;;;;5157330;27;19903;-68
2022/06/23 11:26:24;;;;;;;;;;;33.60;74.10;;;;;;5156387;27;20283;-68
2022/06/23 11:29:07;;;;;;;;;;;33.50;75.60;;;;;;5157067;27;19925;-69
2022/06/23 11:31:35;;;;;;;;;;;33.50;74.90;;;;;;5156768;27;20002;-68
2022/06/23 11:34:20;;;;;;;;;;;33.70;74.70;;;;;;5156577;27;19936;-69
2022/06/23 11:36:56;;;;;;;;;;;33.90;73.70;;;;;;5156467;27;20347;-68
2022/06/23 11:39:41;;;;;;;;;;;34.20;73.60;;;;;;5156467;27;20004;-69
2022/06/23 11:42:45;;;;;;;;;;;34.00;73.40;;;;;;5156485;27;19903;-68
2022/06/23 11:45:33;;;;;;;;;;;34.10;72.90;;;;;;5072228;28;19908;-68
2022/06/23 11:48:17;;;;;;;;;;;34.40;72.00;;;;;;5072745;28;19962;-69
2022/06/23 11:51:04;;;;;;;;;;;34.00;72.70;;;;;;5071768;28;19904;-68
2022/06/23 11:53:39;;;;;;;;;;;34.10;71.60;;;;;;5071985;28;19912;-69
2022/06/23 11:56:21;;;;;;;;;;;34.30;69.30;;;;;;5071879;28;19914;-68
2022/06/23 11:59:08;;;;;;;;;;;34.20;67.70;;;;;;5072034;28;19908;-68
2022/06/23 12:01:34;;;;;;;;;;;34.20;68.40;;;;;;5071414;28;19905;-69
2022/06/23 12:04:12;;;;;;;;;;;34.10;67.80;;;;;;5071347;28;19916;-69
2022/06/23 12:06:40;;;;;;;;;;;34.20;68.60;;;;;;5070831;28;20015;-69
2022/06/23 12:09:06;;;;;;;;;;;34.40;68.00;;;;;;5071549;28;19981;-68
2022/06/23 12:11:33;;;;;;;;;;;34.50;67.30;;;;;;5071250;28;19974;-68
2022/06/23 12:14:02;;;;;;;;;;;34.50;67.60;;;;;;5071481;28;19904;-68
2022/06/23 12:16:27;;;;;;;;;;;34.70;66.80;;;;;;5132358;27;20425;-69
2022/06/23 12:19:05;;;;;;;;;;;34.90;65.80;;;;;;5155883;27;20005;-68
2022/06/23 12:21:50;;;;;;;;;;;35.00;64.30;;;;;;5155777;27;19907;-69
2022/06/23 12:24:22;;;;;;;;;;;35.00;64.60;;;;;;5154487;27;19903;-69
2022/06/23 12:27:00;;;;;;;;;;;34.50;64.40;;;;;;5156380;27;19934;-69
2022/06/23 12:29:45;;;;;;;;;;;34.60;64.50;;;;;;5156140;27;19903;-69
2022/06/23 12:32:10;;;;;;;;;;;34.90;62.70;;;;;;5156241;27;19914;-69
2022/06/23 12:34:42;;;;;;;;;;;34.90;60.90;;;;;;5155434;27;19903;-68
2022/06/23 12:37:26;;;;;;;;;;;34.90;62.60;;;;;;5155916;27;19995;-69
2022/06/23 12:40:00;;;;;;;;;;;34.90;61.80;;;;;;5155723;27;20278;-69
2022/06/23 12:42:37;;;;;;;;;;;34.80;60.80;;;;;;5156086;27;19986;-68
2022/06/23 12:45:21;;;;;;;;;;;34.80;59.90;;;;;;5155427;27;19903;-68
2022/06/23 12:48:02;;;;;;;;;;;34.80;60.50;;;;;;5155934;27;19911;-69
2022/06/23 12:50:34;;;;;;;;;;;34.80;60.70;;;;;;5155476;27;19909;-69
2022/06/23 12:53:00;;;;;;;;;;;34.70;60.90;;;;;;5154255;27;19907;-68
2022/06/23 12:55:38;;;;;;;;;;;34.40;60.30;;;;;;5155794;27;19902;-68
2022/06/23 12:58:13;;;;;;;;;;;34.60;61.50;;;;;;5155414;27;19903;-69
2022/06/23 13:00:47;;;;;;;;;;;34.30;61.10;;;;;;5153625;27;19945;-68
2022/06/23 13:03:13;;;;;;;;;;;34.30;60.30;;;;;;5155506;27;19903;-69
2022/06/23 13:05:41;;;;;;;;;;;34.30;59.60;;;;;;5154797;27;20014;-68
2022/06/23 13:08:07;;;;;;;;;;;34.40;59.60;;;;;;5155538;27;19902;-69
2022/06/23 13:10:36;;;;;;;;;;;34.40;58.70;;;;;;5154794;27;19910;-68
2022/06/23 13:13:20;;;;;;;;;;;34.60;57.70;;;;;;5155199;27;19903;-68
2022/06/23 13:15:49;;;;;;;;;;;34.80;57.90;;;;;;5154847;27;19910;-68
2022/06/23 13:18:18;;;;;;;;;;;34.60;57.30;;;;;;5154749;27;19904;-69
2022/06/23 13:21:02;;;;;;;;;;;34.70;57.40;;;;;;5154648;27;19945;-68
2022/06/23 13:23:36;;;;;;;;;;;34.50;57.40;;;;;;5154811;27;19977;-68
2022/06/23 13:26:04;;;;;;;;;;;34.70;57.20;;;;;;5154684;27;19986;-68
2022/06/23 13:28:35;;;;;;;;;;;34.80;56.70;;;;;;5154520;27;20213;-69
2022/06/23 13:31:21;;;;;;;;;;;34.60;55.80;;;;;;5154477;27;19914;-69
2022/06/23 13:34:01;;;;;;;;;;;34.70;56.90;;;;;;5152818;27;20331;-69
2022/06/23 13:36:30;;;;;;;;;;;34.90;57.40;;;;;;5155103;27;20006;-69
2022/06/23 13:39:17;;;;;;;;;;;35.00;56.90;;;;;;5155029;27;19903;-68
2022/06/23 13:41:49;;;;;;;;;;;35.10;56.20;;;;;;5154778;27;19939;-69
2022/06/23 13:44:22;;;;;;;;;;;35.30;55.50;;;;;;5155260;27;19903;-69
2022/06/23 13:46:54;;;;;;;;;;;35.30;55.00;;;;;;5154870;27;19952;-69
2022/06/23 13:49:24;;;;;;;;;;;35.30;55.20;;;;;;5154862;27;20370;-69
2022/06/23 13:51:55;;;;;;;;;;;35.20;55.30;;;;;;5155074;27;20270;-69
2022/06/23 13:54:31;;;;;;;;;;;35.10;54.90;;;;;;5154567;27;19907;-68
2022/06/23 13:57:08;;;;;;;;;;;35.20;54.40;;;;;;5154698;27;19997;-68
2022/06/23 13:59:53;;;;;;;;;;;35.20;53.70;;;;;;5154670;27;19907;-68
2022/06/23 14:02:34;;;;;;;;;;;34.90;53.50;;;;;;5155052;27;20343;-68
2022/06/23 14:05:09;;;;;;;;;;;35.00;54.10;;;;;;5157878;27;19915;-68
2022/06/23 14:07:42;;;;;;;;;;;34.80;54.50;;;;;;5155859;27;19926;-68
2022/06/23 14:10:20;;;;;;;;;;;35.10;54.60;;;;;;5157917;27;20199;-68
2022/06/23 14:12:53;;;;;;;;;;;35.10;53.90;;;;;;5157708;27;19903;-68
2022/06/23 14:15:28;;;;;;;;;;;34.90;53.40;;;;;;5157614;27;19969;-68
2022/06/23 14:18:14;;;;;;;;;;;34.90;53.00;;;;;;5157431;27;20263;-68
2022/06/23 14:20:47;;;;;;;;;;;34.90;53.10;;;;;;5157610;27;20355;-68
2022/06/23 14:23:16;;;;;;;;;;;35.00;53.00;;;;;;5157325;27;19911;-68
2022/06/23 14:25:49;;;;;;;;;;;35.00;51.00;;;;;;5157102;27;19991;-68
2022/06/23 14:28:21;;;;;;;;;;;35.30;51.10;;;;;;5157409;27;19914;-68
2022/06/23 14:30:54;;;;;;;;;;;35.10;51.50;;;;;;5157210;27;19997;-68
2022/06/23 14:33:29;;;;;;;;;;;35.20;51.40;;;;;;5157416;27;19909;-68
2022/06/23 14:35:55;;;;;;;;;;;35.40;50.90;;;;;;5157265;27;19903;-68
2022/06/23 14:38:36;;;;;;;;;;;35.50;50.30;;;;;;5157398;27;20299;-68
2022/06/23 14:41:05;;;;;;;;;;;35.60;50.40;;;;;;5156859;27;20371;-68
2022/06/23 14:43:56;;;;;;;;;;;35.60;50.70;;;;;;5155436;27;19907;-68
2022/06/23 14:46:22;;;;;;;;;;;35.60;50.70;;;;;;5157124;27;20247;-68
2022/06/23 14:49:01;;;;;;;;;;;35.70;50.20;;;;;;5156843;27;19903;-68
2022/06/23 14:51:32;;;;;;;;;;;35.60;49.80;;;;;;5157224;27;20248;-68
2022/06/23 14:54:09;;;;;;;;;;;35.60;50.70;;;;;;5156906;27;19903;-68
2022/06/23 14:56:39;;;;;;;;;;;35.40;50.90;;;;;;5157095;27;19910;-68
2022/06/23 14:59:14;;;;;;;;;;;35.30;51.00;;;;;;5156482;27;19946;-68
2022/06/23 15:02:02;;;;;;;;;;;35.10;50.50;;;;;;5156704;27;19903;-68
2022/06/23 15:04:32;;;;;;;;;;;35.20;50.60;;;;;;5156339;27;19944;-68
2022/06/23 15:07:04;;;;;;;;;;;35.40;49.80;;;;;;5156421;27;19915;-68